Time;durP1;ratioP1;P1;durP2;ratioP2;P2;SDS_P1;SDS_P2;PMS_P1;PMS_P2;Temp;Humidity;BMP_temperature;BMP_pressure;BME280_temperature;BME280_humidity;BME280_pressure;Samples;Min_cycle;Max_cycle;Signal;HPM_P1;HPM_P2
2023/02/11 00:00:11;;;;;;;27.70;21.15;;;;;;;-2.86;100.00;97741.34;5047247;28;24432;-73
2023/02/11 00:02:37;;;;;;;33.33;20.00;;;;;;;-2.84;100.00;97735.50;5048805;28;24634;-75
2023/02/11 00:05:05;;;;;;;28.92;21.73;;;;;;;-2.76;100.00;97736.50;5052372;28;24459;-73
2023/02/11 00:07:32;;;;;;;25.38;20.38;;;;;;;-2.77;100.00;97728.88;5042788;28;24443;-73
2023/02/11 00:10:01;;;;;;;27.15;19.60;;;;;;;-2.78;100.00;97732.22;5049950;28;24435;-73
2023/02/11 00:12:29;;;;;;;27.52;19.60;;;;;;;-2.84;100.00;97730.44;5047810;28;24450;-73
2023/02/11 00:14:55;;;;;;;29.90;20.75;;;;;;;-2.79;100.00;97726.31;5054119;28;24430;-73
2023/02/11 00:17:22;;;;;;;26.65;18.85;;;;;;;-2.74;100.00;97729.81;5051629;28;24442;-72
2023/02/11 00:19:49;;;;;;;28.20;19.77;;;;;;;-2.72;100.00;97732.38;5046426;28;24442;-72
2023/02/11 00:22:16;;;;;;;29.27;20.42;;;;;;;-2.76;100.00;97735.66;5046301;28;25035;-72
2023/02/11 00:24:42;;;;;;;38.80;18.75;;;;;;;-2.77;100.00;97728.88;5052224;28;24442;-73
2023/02/11 00:27:10;;;;;;;32.85;25.00;;;;;;;-2.73;100.00;97731.50;5038617;28;24450;-73
2023/02/11 00:29:37;;;;;;;35.50;24.08;;;;;;;-2.88;100.00;97726.13;5050076;28;24446;-73
2023/02/11 00:32:04;;;;;;;37.13;23.23;;;;;;;-2.95;100.00;97735.28;5045429;28;24447;-73
2023/02/11 00:34:30;;;;;;;34.20;23.98;;;;;;;-2.93;100.00;97723.50;5041682;28;24446;-73
2023/02/11 00:36:57;;;;;;;34.03;25.70;;;;;;;-2.93;100.00;97727.69;5049075;28;24446;-73
2023/02/11 00:39:24;;;;;;;31.90;23.98;;;;;;;-3.03;100.00;97723.25;5038106;28;24467;-74
2023/02/11 00:41:50;;;;;;;33.97;24.35;;;;;;;-3.06;100.00;97725.72;5041774;28;24459;-72
2023/02/11 00:44:18;;;;;;;34.40;22.20;;;;;;;-3.05;100.00;97719.81;5042598;28;24432;-73
2023/02/11 00:46:44;;;;;;;33.10;23.90;;;;;;;-3.06;100.00;97711.38;5048329;28;24560;-73
2023/02/11 00:49:11;;;;;;;30.60;22.58;;;;;;;-3.25;100.00;97712.66;5046643;28;24455;-73
2023/02/11 00:51:38;;;;;;;28.83;21.10;;;;;;;-3.49;100.00;97717.16;5048561;28;25007;-73
2023/02/11 00:54:05;;;;;;;29.90;19.08;;;;;;;-3.31;100.00;97714.19;5046744;28;24459;-73
2023/02/11 00:56:31;;;;;;;27.50;17.45;;;;;;;-3.22;100.00;97720.31;5037448;28;25022;-74
2023/02/11 00:58:58;;;;;;;28.88;21.13;;;;;;;-3.13;100.00;97727.25;5045424;28;24450;-73
2023/02/11 01:01:27;;;;;;;31.85;22.60;;;;;;;-3.16;100.00;97720.44;5054399;28;24439;-73
2023/02/11 01:03:53;;;;;;;23.73;19.27;;;;;;;-3.11;100.00;97723.09;5042853;28;24456;-73
2023/02/11 01:06:20;;;;;;;28.13;19.70;;;;;;;-3.05;100.00;97719.81;5050069;28;24805;-73
2023/02/11 01:08:46;;;;;;;25.45;19.73;;;;;;;-3.15;100.00;97718.78;5046486;28;24438;-72
2023/02/11 01:11:16;;;;;;;24.27;18.88;;;;;;;-3.26;100.00;97713.47;5048125;28;24446;-73
2023/02/11 01:13:43;;;;;;;30.88;18.30;;;;;;;-3.27;100.00;97713.44;5045913;28;24443;-73
2023/02/11 01:16:11;;;;;;;23.67;18.15;;;;;;;-3.28;100.00;97712.56;5051023;28;24431;-73
2023/02/11 01:18:40;;;;;;;25.48;18.05;;;;;;;-3.39;100.00;97710.63;5052858;28;24435;-74
2023/02/11 01:21:07;;;;;;;25.08;17.80;;;;;;;-3.42;100.00;97701.28;5047852;28;24444;-72
2023/02/11 01:23:33;;;;;;;22.75;17.58;;;;;;;-3.39;100.00;97696.28;5048460;28;24930;-73
2023/02/11 01:26:00;;;;;;;26.40;18.53;;;;;;;-3.43;100.00;97697.03;5046606;28;24446;-72
2023/02/11 01:28:28;;;;;;;21.33;17.00;;;;;;;-3.49;100.00;97700.25;5047111;28;24438;-72
2023/02/11 01:30:55;;;;;;;25.48;18.35;;;;;;;-3.43;100.00;97690.28;5037942;28;24435;-73
2023/02/11 01:33:23;;;;;;;23.58;17.90;;;;;;;-3.41;100.00;97690.34;5038589;28;24428;-73
2023/02/11 01:35:51;;;;;;;20.85;17.02;;;;;;;-3.46;100.00;97690.22;5043493;28;24438;-73
2023/02/11 01:38:19;;;;;;;22.83;17.10;;;;;;;-3.39;100.00;97682.75;5044879;28;24440;-73
2023/02/11 01:40:49;;;;;;;21.38;17.05;;;;;;;-3.39;100.00;97672.63;5040578;28;24436;-73
2023/02/11 01:43:15;;;;;;;23.30;16.42;;;;;;;-3.34;100.00;97681.16;5042960;28;24452;-73
2023/02/11 01:45:56;;;;;;;21.80;16.33;;;;;;;-3.30;100.00;97676.22;5043457;28;24450;-73
2023/02/11 01:48:28;;;;;;;21.33;16.25;;;;;;;-3.28;100.00;97672.03;5045514;28;24439;-73
2023/02/11 01:51:01;;;;;;;21.73;16.90;;;;;;;-3.31;100.00;97671.97;5039356;28;25016;-72
2023/02/11 01:59:05;;;;;;;22.20;16.97;;;;;;;-3.30;100.00;97666.09;5043757;28;24510;-73
2023/02/11 02:01:35;;;;;;;22.38;17.13;;;;;;;-3.30;100.00;97660.13;5044412;28;24437;-72
2023/02/11 02:04:05;;;;;;;26.95;18.77;;;;;;;-3.30;100.00;97661.03;5041853;28;24451;-73
2023/02/11 02:06:35;;;;;;;27.52;19.02;;;;;;;-3.31;100.00;97664.34;5044284;28;24991;-73
2023/02/11 02:09:06;;;;;;;28.75;19.00;;;;;;;-3.29;100.00;97662.72;5045963;28;24971;-73
2023/02/11 02:11:32;;;;;;;23.55;17.90;;;;;;;-3.39;100.00;97659.97;5049296;28;25341;-72
2023/02/11 02:13:59;;;;;;;22.42;16.65;;;;;;;-3.57;100.00;97655.34;5041524;28;24451;-73
2023/02/11 02:16:31;;;;;;;20.60;16.58;;;;;;;-3.60;100.00;97661.16;5041148;28;24987;-73
2023/02/11 02:19:11;;;;;;;21.55;17.33;;;;;;;-3.62;100.00;97661.97;5042779;28;24434;-73
2023/02/11 02:22:13;;;;;;;23.40;16.95;;;;;;;-3.62;100.00;97660.28;5045234;28;24439;-72
2023/02/11 02:24:59;;;;;;;19.27;16.77;;;;;;;-3.63;100.00;97658.59;5040904;28;24946;-73
2023/02/11 02:27:37;;;;;;;22.60;17.50;;;;;;;-3.62;100.00;97649.31;5044860;28;24447;-72
2023/02/11 02:30:31;;;;;;;17.83;15.43;;;;;;;-3.56;100.00;97649.44;5047904;28;24432;-72
2023/02/11 02:33:20;;;;;;;23.95;16.88;;;;;;;-3.55;100.00;97644.41;5041234;28;24493;-72
2023/02/11 02:35:56;;;;;;;25.80;17.15;;;;;;;-3.59;100.00;97632.50;5038627;28;24996;-72
2023/02/11 02:38:27;;;;;;;26.90;18.08;;;;;;;-3.58;100.00;97634.22;5048813;28;24435;-73
2023/02/11 02:40:59;;;;;;;22.98;17.13;;;;;;;-3.51;100.00;97633.53;5051303;28;24517;-73
2023/02/11 02:43:28;;;;;;;26.33;17.97;;;;;;;-3.50;100.00;97636.91;5045076;28;24447;-72
2023/02/11 02:45:55;;;;;;;25.40;17.08;;;;;;;-3.52;100.00;97630.94;5046562;28;24462;-73
2023/02/11 02:48:28;;;;;;;25.17;17.27;;;;;;;-3.51;100.00;97627.63;5051501;28;24553;-72
2023/02/11 02:51:08;;;;;;;21.80;16.88;;;;;;;-3.44;100.00;97626.94;5048035;28;24431;-72
2023/02/11 02:53:50;;;;;;;23.80;17.75;;;;;;;-3.56;100.00;97625.00;5047386;28;24446;-72
2023/02/11 02:56:23;;;;;;;24.45;17.10;;;;;;;-3.72;100.00;97625.44;5049305;28;24983;-72
2023/02/11 02:59:16;;;;;;;26.08;17.85;;;;;;;-3.74;100.00;97630.50;5048712;28;24442;-72
2023/02/11 03:01:53;;;;;;;28.37;17.90;;;;;;;-3.69;100.00;97628.06;5049383;28;24435;-72
2023/02/11 03:04:29;;;;;;;26.43;20.40;;;;;;;-3.63;100.00;97630.75;5053167;28;24805;-73
2023/02/11 03:07:03;;;;;;;26.03;19.93;;;;;;;-3.71;100.00;97625.50;5045270;28;24440;-73
2023/02/11 03:09:37;;;;;;;27.33;21.27;;;;;;;-3.62;100.00;97619.78;5053576;28;25000;-73
2023/02/11 03:12:05;;;;;;;27.20;21.42;;;;;;;-3.66;100.00;97616.31;5048434;28;24450;-73
2023/02/11 03:14:34;;;;;;;24.73;19.73;;;;;;;-3.77;100.00;97616.91;5050157;28;24435;-72
2023/02/11 03:17:04;;;;;;;22.45;18.95;;;;;;;-3.72;100.00;97617.84;5050729;28;25010;-73
2023/02/11 03:19:36;;;;;;;28.67;20.23;;;;;;;-3.94;100.00;97622.41;5044343;28;24447;-73
2023/02/11 03:22:08;;;;;;;21.73;18.38;;;;;;;-3.83;100.00;97624.34;5046818;28;24439;-73
2023/02/11 03:24:38;;;;;;;27.20;19.42;;;;;;;-3.88;100.00;97615.81;5053483;28;24451;-72
2023/02/11 03:27:11;;;;;;;24.80;19.50;;;;;;;-3.74;100.00;97622.91;5045818;28;24447;-72
2023/02/11 03:29:44;;;;;;;26.63;19.65;;;;;;;-3.90;100.00;97629.25;5042341;28;24802;-72
2023/02/11 03:32:17;;;;;;;23.38;17.75;;;;;;;-3.84;100.00;97633.63;5039916;28;24435;-73
2023/02/11 03:34:49;;;;;;;26.67;18.27;;;;;;;-3.82;100.00;97633.66;5048638;28;24439;-73
2023/02/11 03:37:21;;;;;;;22.15;17.45;;;;;;;-3.72;100.00;97620.38;5051134;28;24439;-72
2023/02/11 03:39:52;;;;;;;25.25;18.95;;;;;;;-3.72;100.00;97615.31;5050494;28;24980;-73
2023/02/11 03:42:20;;;;;;;27.07;17.80;;;;;;;-3.82;100.00;97605.78;5051940;28;24430;-72
2023/02/11 03:44:53;;;;;;;25.05;19.38;;;;;;;-3.98;100.00;97612.19;5054645;28;24450;-73
2023/02/11 03:47:23;;;;;;;25.38;20.17;;;;;;;-4.16;100.00;97633.69;5051745;28;24981;-73
2023/02/11 03:49:54;;;;;;;23.98;18.75;;;;;;;-4.01;100.00;97612.13;5052570;28;24434;-72
2023/02/11 03:52:23;;;;;;;22.17;18.50;;;;;;;-3.95;100.00;97607.22;5047713;28;24442;-72
2023/02/11 03:54:53;;;;;;;21.50;18.65;;;;;;;-4.19;100.00;97612.53;5045733;28;24502;-73
2023/02/11 03:57:20;;;;;;;21.67;18.38;;;;;;;-4.39;100.00;97619.63;5038600;28;24439;-73
2023/02/11 03:59:51;;;;;;;23.67;17.48;;;;;;;-4.25;100.00;97610.72;5048697;28;24443;-73
2023/02/11 04:02:18;;;;;;;26.20;17.63;;;;;;;-4.04;100.00;97601.91;5042696;28;24443;-72
2023/02/11 04:04:46;;;;;;;21.10;16.52;;;;;;;-3.97;100.00;97592.00;5048562;28;24458;-73
2023/02/11 04:07:14;;;;;;;22.38;17.08;;;;;;;-3.95;100.00;97592.03;5039282;28;24806;-72
2023/02/11 04:09:40;;;;;;;23.67;17.35;;;;;;;-3.91;100.00;97597.19;5050547;28;24438;-72
2023/02/11 04:12:07;;;;;;;27.33;17.38;;;;;;;-3.61;100.00;97601.22;5051457;28;24438;-72
2023/02/11 04:14:34;;;;;;;18.23;15.90;;;;;;;-3.10;100.00;97598.06;5048953;28;24798;-72
2023/02/11 04:17:01;;;;;;;22.23;16.48;;;;;;;-3.70;100.00;97588.38;5049411;28;24439;-73
2023/02/11 04:19:27;;;;;;;24.33;17.73;;;;;;;-3.95;100.00;97602.16;5035422;28;24439;-72
2023/02/11 04:21:54;;;;;;;23.25;16.42;;;;;;;-4.00;100.00;97614.69;5051108;28;24501;-72
2023/02/11 04:24:21;;;;;;;25.88;17.10;;;;;;;-4.23;100.00;97620.84;5044118;28;24459;-72
2023/02/11 04:26:48;;;;;;;19.80;16.23;;;;;;;-4.28;100.00;97630.03;5047972;28;24451;-72
2023/02/11 04:29:14;;;;;;;21.80;16.60;;;;;;;-4.00;100.00;97617.22;5045428;28;24435;-72
2023/02/11 04:31:41;;;;;;;21.15;15.45;;;;;;;-3.95;100.00;97617.34;5049059;28;24440;-71
2023/02/11 04:34:07;;;;;;;20.67;16.33;;;;;;;-3.71;100.00;97617.03;5038518;28;24435;-71
2023/02/11 04:36:34;;;;;;;21.55;15.63;;;;;;;-3.69;100.00;97612.88;5047635;28;24443;-71
2023/02/11 04:39:00;;;;;;;27.42;16.52;;;;;;;-3.73;100.00;97614.47;5045636;28;24781;-71
2023/02/11 04:41:28;;;;;;;23.90;17.20;;;;;;;-3.74;100.00;97607.72;5049300;28;24444;-72
2023/02/11 04:43:55;;;;;;;26.20;17.70;;;;;;;-3.73;100.00;97598.44;5042907;28;24454;-72
2023/02/11 04:46:24;;;;;;;26.00;15.82;;;;;;;-3.76;100.00;97599.19;5044554;28;24447;-73
2023/02/11 04:48:50;;;;;;;23.77;17.13;;;;;;;-3.68;100.00;97587.56;5049817;28;24431;-73
2023/02/11 04:51:17;;;;;;;23.80;16.80;;;;;;;-3.65;100.00;97594.38;5049421;28;24432;-74
2023/02/11 04:53:44;;;;;;;20.00;15.77;;;;;;;-3.57;100.00;97585.25;5046961;28;24804;-73
2023/02/11 04:56:10;;;;;;;23.05;16.55;;;;;;;-3.54;100.00;97594.63;5039791;28;24515;-73
2023/02/11 04:58:38;;;;;;;21.67;15.52;;;;;;;-3.53;100.00;97592.09;5052777;28;24438;-73
2023/02/11 05:01:08;;;;;;;23.03;16.90;;;;;;;-3.61;100.00;97600.38;5052709;28;24447;-74
2023/02/11 05:03:34;;;;;;;19.42;15.20;;;;;;;-3.69;100.00;97601.06;5043205;28;24847;-73
2023/02/11 05:06:01;;;;;;;21.00;15.27;;;;;;;-3.73;100.00;97609.41;5047118;28;24438;-73
2023/02/11 05:08:27;;;;;;;17.20;14.02;;;;;;;-3.55;100.00;97606.44;5046702;28;24443;-72
2023/02/11 05:10:54;;;;;;;22.25;16.48;;;;;;;-3.18;100.00;97604.69;5047086;28;24439;-73
2023/02/11 05:13:20;;;;;;;22.45;17.20;;;;;;;-3.09;100.00;97599.78;5047834;28;24439;-73
2023/02/11 05:15:48;;;;;;;26.00;17.67;;;;;;;-3.06;100.00;97593.91;5046748;28;24983;-72
2023/02/11 05:18:15;;;;;;;19.52;15.82;;;;;;;-3.14;100.00;97590.38;5045052;28;24467;-72
2023/02/11 05:20:42;;;;;;;21.73;15.57;;;;;;;-3.26;100.00;97586.78;5047545;28;24486;-72
2023/02/11 05:23:09;;;;;;;19.63;15.05;;;;;;;-3.16;100.00;97580.19;5047634;28;24438;-72
2023/02/11 05:25:35;;;;;;;19.30;15.48;;;;;;;-3.15;100.00;97576.88;5047803;28;24427;-72
2023/02/11 05:28:02;;;;;;;21.00;16.50;;;;;;;-3.13;100.00;97579.41;5046630;28;24435;-72
2023/02/11 05:30:29;;;;;;;21.73;16.17;;;;;;;-3.09;100.00;97568.50;5039617;28;24443;-72
2023/02/11 05:32:57;;;;;;;21.50;16.65;;;;;;;-2.97;100.00;97563.66;5040038;28;25252;-72
2023/02/11 05:35:23;;;;;;;25.30;16.20;;;;;;;-2.96;100.00;97562.88;5048581;28;24435;-73
2023/02/11 05:37:50;;;;;;;25.80;17.27;;;;;;;-3.06;100.00;97560.97;5040820;28;24440;-72
2023/02/11 05:40:17;;;;;;;23.05;15.93;;;;;;;-3.11;100.00;97567.66;5043060;28;24977;-72
2023/02/11 05:42:43;;;;;;;21.85;15.98;;;;;;;-3.08;100.00;97555.00;5046050;28;24448;-72
2023/02/11 05:45:10;;;;;;;25.60;16.50;;;;;;;-3.18;100.00;97544.69;5043650;28;24451;-72
2023/02/11 05:47:36;;;;;;;31.00;22.40;;;;;;;-3.28;100.00;97537.75;5035979;28;24432;-73
2023/02/11 05:50:05;;;;;;;20.77;16.98;;;;;;;-3.38;100.00;97542.59;5042753;28;24470;-72
2023/02/11 05:52:31;;;;;;;19.83;14.57;;;;;;;-3.32;100.00;97535.13;5046833;28;24431;-73
2023/02/11 05:54:58;;;;;;;20.92;15.40;;;;;;;-3.25;100.00;97512.47;5044974;28;24789;-73
2023/02/11 05:57:24;;;;;;;25.25;16.58;;;;;;;-3.26;100.00;97512.44;5040349;28;24798;-72
2023/02/11 05:59:51;;;;;;;20.63;15.43;;;;;;;-3.35;100.00;97523.25;5040033;28;24872;-72
2023/02/11 06:02:17;;;;;;;21.15;15.40;;;;;;;-3.27;100.00;97523.38;5046126;28;24667;-72
2023/02/11 06:04:44;;;;;;;20.55;15.38;;;;;;;-3.38;100.00;97529.91;5043996;28;24459;-73
2023/02/11 06:07:12;;;;;;;15.43;11.55;;;;;;;-3.41;100.00;97549.31;5043476;28;24447;-72
2023/02/11 06:09:38;;;;;;;17.27;11.20;;;;;;;-3.23;100.00;97563.16;5045233;28;24450;-72
2023/02/11 06:12:05;;;;;;;18.60;12.95;;;;;;;-2.94;100.00;97571.34;5041955;28;24443;-72
2023/02/11 06:14:32;;;;;;;15.00;11.98;;;;;;;-2.88;100.00;97561.31;5040799;28;24992;-72
2023/02/11 06:16:59;;;;;;;16.20;10.88;;;;;;;-3.02;100.00;97555.97;5045375;28;24494;-73
2023/02/11 06:19:26;;;;;;;12.90;9.20;;;;;;;-2.94;100.00;97559.50;5045146;28;24439;-72
2023/02/11 06:21:52;;;;;;;15.85;12.23;;;;;;;-2.72;100.00;97567.50;5041465;28;24435;-73
2023/02/11 06:24:20;;;;;;;12.98;11.23;;;;;;;-2.74;100.00;97575.09;5044180;28;24454;-72
2023/02/11 06:26:46;;;;;;;17.50;11.82;;;;;;;-2.86;100.00;97579.94;5054013;28;24442;-73
2023/02/11 06:29:13;;;;;;;14.27;11.55;;;;;;;-2.85;100.00;97585.88;5039523;28;24436;-72
2023/02/11 06:31:39;;;;;;;17.08;11.48;;;;;;;-2.75;100.00;97587.75;5041520;28;24439;-72
2023/02/11 06:34:06;;;;;;;15.95;13.05;;;;;;;-2.62;100.00;97582.06;5041267;28;24514;-72
2023/02/11 06:36:33;;;;;;;17.08;12.68;;;;;;;-2.58;100.00;97576.22;5045585;28;25011;-72
2023/02/11 06:38:59;;;;;;;17.95;12.48;;;;;;;-2.55;100.00;97566.13;5044922;28;24438;-72
2023/02/11 06:41:27;;;;;;;13.55;11.50;;;;;;;-2.60;100.00;97564.34;5046033;28;24451;-72
2023/02/11 06:43:54;;;;;;;18.93;11.97;;;;;;;-2.64;100.00;97555.81;5045298;28;24446;-71
2023/02/11 06:46:21;;;;;;;14.98;12.27;;;;;;;-2.64;100.00;97555.81;5043400;28;25589;-72
2023/02/11 06:48:47;;;;;;;14.18;12.18;;;;;;;-2.63;100.00;97561.75;5044531;28;24436;-73
2023/02/11 06:51:15;;;;;;;13.68;11.75;;;;;;;-2.63;100.00;97562.63;5043892;28;24435;-72
2023/02/11 06:53:43;;;;;;;15.07;12.93;;;;;;;-2.66;100.00;97561.72;5052602;28;24437;-72
2023/02/11 06:56:12;;;;;;;18.85;16.13;;;;;;;-2.76;100.00;97565.75;5045055;28;24435;-72
2023/02/11 06:58:40;;;;;;;17.25;14.95;;;;;;;-2.74;100.00;97576.78;5046482;28;24435;-73
2023/02/11 07:01:07;;;;;;;18.85;14.45;;;;;;;-2.68;100.00;97575.19;5048170;28;24434;-73
2023/02/11 07:03:35;;;;;;;15.90;12.57;;;;;;;-2.56;100.00;97571.16;5048598;28;24446;-73
2023/02/11 07:06:02;;;;;;;16.95;12.15;;;;;;;-2.48;100.00;97579.78;5049457;28;25374;-73
2023/02/11 07:08:28;;;;;;;14.77;11.45;;;;;;;-2.39;100.00;97584.16;5042618;28;24427;-73
2023/02/11 07:10:55;;;;;;;14.27;11.35;;;;;;;-2.32;100.00;97583.44;5046780;28;24446;-73
2023/02/11 07:13:21;;;;;;;13.40;11.20;;;;;;;-2.30;100.00;97579.22;5045303;28;24999;-73
2023/02/11 07:15:49;;;;;;;13.90;11.80;;;;;;;-2.21;100.00;97579.38;5047179;28;25276;-73
2023/02/11 07:18:15;;;;;;;17.65;11.50;;;;;;;-2.16;100.00;97574.38;5036873;28;24533;-73
2023/02/11 07:20:42;;;;;;;15.25;11.75;;;;;;;-2.13;100.00;97576.97;5050715;28;24521;-73
2023/02/11 07:23:08;;;;;;;17.88;14.98;;;;;;;-2.16;100.00;97572.69;5043229;28;24436;-73
2023/02/11 07:25:35;;;;;;;18.80;13.33;;;;;;;-2.27;100.00;97574.19;5037102;28;24611;-73
2023/02/11 07:28:03;;;;;;;16.67;12.90;;;;;;;-2.23;100.00;97581.88;5040962;28;24439;-73
2023/02/11 07:30:29;;;;;;;13.15;11.18;;;;;;;-2.17;100.00;97578.59;5040647;28;24432;-73
2023/02/11 07:32:57;;;;;;;15.85;12.05;;;;;;;-2.10;100.00;97574.47;5043308;28;25113;-73
2023/02/11 07:35:23;;;;;;;16.75;11.77;;;;;;;-2.05;100.00;97577.94;5039077;28;24435;-72
2023/02/11 07:37:50;;;;;;;12.07;10.65;;;;;;;-2.01;100.00;97572.91;5046718;28;25003;-72
2023/02/11 07:40:17;;;;;;;15.07;12.57;;;;;;;-2.00;100.00;97582.28;5047502;28;24463;-72
2023/02/11 07:42:43;;;;;;;17.87;12.20;;;;;;;-1.92;100.00;97592.53;5039419;28;24435;-72
2023/02/11 07:45:10;;;;;;;13.93;12.30;;;;;;;-1.90;100.00;97595.09;5047953;28;24462;-72
2023/02/11 07:47:37;;;;;;;14.10;12.18;;;;;;;-1.87;100.00;97615.47;5045688;28;24446;-72
2023/02/11 07:50:05;;;;;;;13.30;11.50;;;;;;;-1.78;100.00;97619.00;5043177;28;24434;-72
2023/02/11 07:52:32;;;;;;;14.15;11.38;;;;;;;-1.72;100.00;97613.16;5041054;28;24467;-73
2023/02/11 07:54:58;;;;;;;13.68;11.27;;;;;;;-1.61;100.00;97616.69;5045877;28;24430;-72
2023/02/11 07:57:25;;;;;;;14.85;11.63;;;;;;;-1.62;100.00;97616.69;5037913;28;24435;-72
2023/02/11 07:59:52;;;;;;;19.33;12.70;;;;;;;-1.65;100.00;97620.03;5041501;28;24524;-72
2023/02/11 08:02:19;;;;;;;15.18;11.35;;;;;;;-1.48;100.00;97610.13;5035807;28;24438;-72
2023/02/11 08:04:46;;;;;;;16.95;12.30;;;;;;;-1.50;100.00;97606.69;5052118;28;24453;-73
2023/02/11 08:07:16;;;;;;;16.08;11.63;;;;;;;-1.32;100.00;97601.84;5050519;28;24912;-72
2023/02/11 08:09:42;;;;;;;14.32;11.65;;;;;;;-1.30;100.00;97590.03;5045291;28;24463;-72
2023/02/11 08:12:09;;;;;;;14.43;12.15;;;;;;;-1.46;100.00;97588.13;5049283;28;24434;-72
2023/02/11 08:14:35;;;;;;;12.67;10.77;;;;;;;-1.21;100.00;97591.84;5049097;28;25039;-72
2023/02/11 08:17:02;;;;;;;15.30;11.60;;;;;;;-1.21;100.00;97599.47;5052894;28;24443;-72
2023/02/11 08:19:28;;;;;;;18.35;12.05;;;;;;;-1.18;100.00;97601.19;5043460;28;24435;-72
2023/02/11 08:21:55;;;;;;;13.13;11.40;;;;;;;-0.83;100.00;97597.38;5049354;28;24435;-72
2023/02/11 08:24:23;;;;;;;15.70;12.25;;;;;;;-0.95;100.00;97589.59;5050074;28;25022;-72
2023/02/11 08:26:50;;;;;;;17.73;13.02;;;;;;;-0.81;100.00;97598.25;5058811;28;24466;-73
2023/02/11 08:29:17;;;;;;;16.83;13.47;;;;;;;-0.81;100.00;97588.06;5047613;28;24519;-73
2023/02/11 08:31:45;;;;;;;16.40;12.32;;;;;;;-0.74;100.00;97584.75;5043132;28;24431;-72
2023/02/11 08:34:17;;;;;;;17.87;12.40;;;;;;;-0.60;100.00;97591.66;5034769;28;24438;-72
2023/02/11 08:36:43;;;;;;;17.45;11.05;;;;;;;-0.45;100.00;97599.44;5047973;28;24450;-73
2023/02/11 08:39:14;;;;;;;14.77;10.05;;;;;;;-0.39;100.00;97591.88;5039436;28;24446;-72
2023/02/11 08:41:42;;;;;;;14.52;9.85;;;;;;;-0.32;100.00;97583.47;5041587;28;24454;-72
2023/02/11 08:44:09;;;;;;;12.65;9.50;;;;;;;-0.24;100.00;97586.06;5050976;28;24443;-73
2023/02/11 08:46:35;;;;;;;10.48;9.48;;;;;;;-0.13;100.00;97578.53;5041278;28;24431;-73
2023/02/11 08:49:02;;;;;;;11.77;8.53;;;;;;;-0.04;100.00;97576.91;5042019;28;24505;-73
2023/02/11 08:51:30;;;;;;;14.68;9.45;;;;;;;0.07;100.00;97576.97;5049761;28;25249;-72
2023/02/11 08:53:57;;;;;;;15.40;9.53;;;;;;;-0.06;100.00;97581.13;5047956;28;25061;-72
2023/02/11 08:56:24;;;;;;;12.32;9.80;;;;;;;0.03;100.00;97574.41;5045224;28;24794;-72
2023/02/11 08:58:53;;;;;;;12.25;10.27;;;;;;;0.17;100.00;97571.09;5041883;28;24434;-73
2023/02/11 09:01:21;;;;;;;14.75;11.25;;;;;;;0.28;100.00;97576.28;5058904;28;24438;-73
2023/02/11 09:03:48;;;;;;;15.15;12.93;;;;;;;0.34;100.00;97571.22;5049426;28;24447;-73
2023/02/11 09:06:16;;;;;;;16.63;12.82;;;;;;;0.24;100.00;97562.66;5045315;28;24462;-73
2023/02/11 09:08:44;;;;;;;18.53;13.33;;;;;;;0.46;100.00;97557.69;5038525;28;24445;-73
2023/02/11 09:11:11;;;;;;;14.32;11.02;;;;;;;0.79;100.00;97559.56;5043074;28;24847;-73
2023/02/11 09:13:38;;;;;;;16.75;12.15;;;;;;;0.90;100.00;97568.13;5045883;28;24434;-72
2023/02/11 09:16:07;;;;;;;12.88;10.60;;;;;;;0.92;100.00;97563.00;5049221;28;24431;-73
2023/02/11 09:18:33;;;;;;;12.80;9.77;;;;;;;1.15;100.00;97561.41;5044381;28;24444;-72
2023/02/11 09:21:02;;;;;;;11.82;9.50;;;;;;;1.39;100.00;97562.31;5049080;28;24435;-73
2023/02/11 09:23:28;;;;;;;12.48;9.63;;;;;;;1.70;100.00;97568.28;5049925;28;24439;-73
2023/02/11 09:25:55;;;;;;;13.80;9.38;;;;;;;1.86;100.00;97566.63;5045310;28;24451;-73
2023/02/11 09:28:21;;;;;;;12.50;9.27;;;;;;;2.16;100.00;97571.72;5050144;28;24467;-73
2023/02/11 09:30:48;;;;;;;14.80;9.53;;;;;;;1.99;100.00;97560.66;5041711;28;24859;-74
2023/02/11 09:33:16;;;;;;;11.57;8.80;;;;;;;2.25;100.00;97555.50;5048945;28;24810;-74
2023/02/11 09:35:42;;;;;;;13.20;10.50;;;;;;;2.15;100.00;97551.25;5041520;28;24447;-74
2023/02/11 09:38:08;;;;;;;12.93;9.70;;;;;;;2.51;100.00;97552.91;5048614;28;24439;-74
2023/02/11 09:40:35;;;;;;;12.18;9.27;;;;;;;2.58;100.00;97544.34;5040861;28;24435;-75
2023/02/11 09:43:07;;;;;;;16.05;9.35;;;;;;;2.77;100.00;97544.31;5051184;28;24443;-74
2023/02/11 09:45:35;;;;;;;11.52;8.73;;;;;;;2.94;100.00;97536.56;5045186;28;24998;-74
2023/02/11 09:48:04;;;;;;;10.27;8.20;;;;;;;3.22;100.00;97548.34;5047068;28;24435;-74
2023/02/11 09:50:36;;;;;;;10.48;8.48;;;;;;;3.29;100.00;97547.47;5044038;28;24442;-69
2023/02/11 09:53:05;;;;;;;9.70;7.75;;;;;;;3.45;100.00;97545.69;5052749;28;24996;-74
2023/02/11 09:55:36;;;;;;;10.43;8.80;;;;;;;3.71;100.00;97548.06;5045987;28;24796;-74
2023/02/11 09:58:07;;;;;;;8.15;6.45;;;;;;;3.98;100.00;97552.13;5036440;28;24476;-73
2023/02/11 10:00:37;;;;;;;8.57;7.47;;;;;;;4.39;100.00;97557.75;5038659;28;24431;-73
2023/02/11 10:03:26;;;;;;;8.60;7.70;;;;;;;4.13;100.00;97563.97;5045235;28;24435;-74
2023/02/11 10:06:09;;;;;;;10.27;7.60;;;;;;;4.06;100.00;97557.19;5045252;28;24458;-74
2023/02/11 10:08:45;;;;;;;8.27;6.40;;;;;;;4.62;100.00;97563.47;5039969;28;24485;-73
2023/02/11 10:11:20;;;;;;;8.95;7.25;;;;;;;4.88;97.70;97562.34;5040369;28;24439;-73
2023/02/11 10:13:59;;;;;;;11.27;7.70;;;;;;;4.94;96.12;97570.00;5041629;28;24435;-73
2023/02/11 10:16:41;;;;;;;13.20;7.90;;;;;;;4.92;99.20;97566.56;5046203;28;24999;-74
2023/02/11 10:19:30;;;;;;;10.77;7.93;;;;;;;4.90;98.06;97565.75;5044553;28;24442;-74
2023/02/11 10:22:09;;;;;;;7.05;5.90;;;;;;;5.44;95.62;97568.47;5042217;28;25021;-74
2023/02/11 10:24:37;;;;;;;10.57;6.82;;;;;;;5.27;93.95;97571.28;5047384;28;24427;-74
2023/02/11 10:27:14;;;;;;;8.25;6.22;;;;;;;5.60;95.43;97569.97;5048831;28;24431;-74
2023/02/11 10:29:49;;;;;;;8.20;5.10;;;;;;;5.68;92.66;97569.88;5046181;28;24438;-74
2023/02/11 10:32:29;;;;;;;7.75;5.00;;;;;;;5.88;91.94;97578.13;5050526;28;24429;-74
2023/02/11 10:35:01;;;;;;;8.73;5.80;;;;;;;6.16;90.98;97572.59;5037253;28;24427;-74
2023/02/11 10:37:29;;;;;;;6.60;5.45;;;;;;;6.18;89.93;97573.41;5042425;28;24439;-74
2023/02/11 10:39:56;;;;;;;9.80;5.38;;;;;;;6.47;89.99;97580.63;5045486;28;24435;-74
2023/02/11 10:42:22;;;;;;;6.28;4.85;;;;;;;6.44;85.36;97581.53;5042828;28;25020;-74
2023/02/11 10:44:57;;;;;;;7.47;4.75;;;;;;;6.35;87.97;97573.13;5041019;28;24978;-74
2023/02/11 10:47:27;;;;;;;5.60;4.22;;;;;;;6.55;89.39;97561.59;5037252;28;25032;-74
2023/02/11 10:49:54;;;;;;;5.70;3.70;;;;;;;6.75;88.90;97561.22;5054257;28;24438;-74
2023/02/11 10:52:23;;;;;;;4.68;4.20;;;;;;;7.19;84.74;97562.09;5048837;28;25072;-74
2023/02/11 10:55:05;;;;;;;6.33;4.10;;;;;;;7.08;84.49;97558.00;5046749;28;24458;-74
2023/02/11 10:57:35;;;;;;;6.53;3.60;;;;;;;7.14;83.44;97558.72;5044058;28;24439;-75
2023/02/11 11:00:07;;;;;;;5.63;3.95;;;;;;;6.48;83.58;97548.84;5046210;28;24443;-74
2023/02/11 11:02:37;;;;;;;5.00;3.88;;;;;;;6.29;84.94;97543.19;5053001;28;24450;-74
2023/02/11 11:05:06;;;;;;;4.53;3.70;;;;;;;6.16;86.25;97534.84;5044937;28;21177;-74
2023/02/11 11:07:34;;;;;;;5.85;3.67;;;;;;;6.04;87.51;97525.63;5039468;28;20826;-74
2023/02/11 11:10:05;;;;;;;7.35;3.78;;;;;;;6.35;86.63;97529.38;5047494;28;24428;-74
2023/02/11 11:12:36;;;;;;;4.55;3.30;;;;;;;6.51;86.45;97526.47;5046986;28;20688;-74
2023/02/11 11:15:17;;;;;;;5.35;3.42;;;;;;;6.64;86.22;97511.66;5052084;28;21247;-74
2023/02/11 11:17:44;;;;;;;5.18;4.18;;;;;;;6.34;86.29;97512.22;5047628;28;24818;-74
2023/02/11 11:20:18;;;;;;;6.22;4.07;;;;;;;6.33;86.94;97519.09;5048068;28;24439;-75
2023/02/11 11:22:46;;;;;;;5.03;3.80;;;;;;;6.45;88.12;97518.91;5047721;28;20782;-73
2023/02/11 11:25:29;;;;;;;5.47;3.95;;;;;;;6.53;85.73;97517.03;5050681;28;24462;-74
2023/02/11 11:27:58;;;;;;;5.95;4.22;;;;;;;6.36;86.14;97516.47;5053692;28;20821;-74